Time;durP1;ratioP1;P1;durP2;ratioP2;P2;SDS_P1;SDS_P2;PMS_P1;PMS_P2;Temp;Humidity;BMP_temperature;BMP_pressure;BME280_temperature;BME280_humidity;BME280_pressure;Samples;Min_cycle;Max_cycle;Signal;HPM_P1;HPM_P2
2023/04/12 00:02:34;;;;;;;3.90;2.90;;;;;;;;;;5032464;28;20454;-75
2023/04/12 00:05:08;;;;;;;2.77;2.53;;;;;;;;;;5032278;28;20457;-74
2023/04/12 00:07:41;;;;;;;5.33;2.53;;;;;;;;;;5032170;28;20485;-76
2023/04/12 00:10:13;;;;;;;3.73;2.73;;;;;;;;;;5032392;28;21002;-77
2023/04/12 00:12:51;;;;;;;3.70;2.93;;;;;;;;;;5033942;28;20480;-76
2023/04/12 00:15:29;;;;;;;4.40;2.97;;;;;;;;;;5035586;28;20470;-76
2023/04/12 00:18:04;;;;;;;5.23;3.30;;;;;;;;;;5036265;28;21053;-76
2023/04/12 00:20:38;;;;;;;3.30;2.30;;;;;;;;;;5035360;28;20441;-78
2023/04/12 00:25:56;;;;;;;4.70;2.60;;;;;;;;;;5033828;28;20891;-76
2023/04/12 00:28:27;;;;;;;3.03;2.47;;;;;;;;;;5033969;28;20533;-76
2023/04/12 00:30:55;;;;;;;4.30;2.40;;;;;;;;;;5032678;28;20927;-76
2023/04/12 00:33:24;;;;;;;6.93;2.80;;;;;;;;;;5032094;28;20465;-76
2023/04/12 00:36:04;;;;;;;6.33;3.00;;;;;;;;;;5031956;28;20990;-76
2023/04/12 00:38:40;;;;;;;2.50;2.30;;;;;;;;;;5032507;28;20473;-76
2023/04/12 00:41:17;;;;;;;4.30;2.47;;;;;;;;;;5032748;28;20457;-75
2023/04/12 00:43:50;;;;;;;3.50;2.50;;;;;;;;;;5032745;28;21009;-76
2023/04/12 00:46:20;;;;;;;5.20;2.60;;;;;;;;;;5032902;28;20507;-75
2023/04/12 00:48:51;;;;;;;5.03;3.37;;;;;;;;;;5034115;28;20508;-76
2023/04/12 00:51:24;;;;;;;4.30;2.70;;;;;;;;;;5034165;28;20480;-76
2023/04/12 00:53:53;;;;;;;3.73;2.77;;;;;;;;;;5033337;28;20447;-75
2023/04/12 00:56:26;;;;;;;4.63;2.43;;;;;;;;;;5033348;28;20998;-76
2023/04/12 00:58:55;;;;;;;4.43;3.47;;;;;;;;;;5033174;28;20823;-77
2023/04/12 01:01:23;;;;;;;5.80;3.00;;;;;;;;;;5033238;28;20450;-76
2023/04/12 01:06:43;;;;;;;4.80;3.13;;;;;;;;;;5035990;28;20462;-76
2023/04/12 01:09:19;;;;;;;3.30;2.50;;;;;;;;;;5035736;28;21263;-74
2023/04/12 01:12:00;;;;;;;3.27;3.03;;;;;;;;;;5033677;28;20446;-77
2023/04/12 01:14:30;;;;;;;5.00;3.17;;;;;;;;;;5034843;28;20733;-75
2023/04/12 01:17:01;;;;;;;4.43;2.90;;;;;;;;;;5034084;28;20478;-75
2023/04/12 01:19:44;;;;;;;3.63;2.93;;;;;;;;;;5052802;28;20856;-76
2023/04/12 01:22:18;;;;;;;3.23;2.90;;;;;;;;;;5052873;28;20445;-77
2023/04/12 01:24:53;;;;;;;3.90;3.60;;;;;;;;;;5052195;28;20457;-77
2023/04/12 01:27:36;;;;;;;3.40;3.10;;;;;;;;;;5054124;28;20548;-77
2023/04/12 01:30:22;;;;;;;3.00;2.80;;;;;;;;;;5056688;28;20454;-76
2023/04/12 01:33:01;;;;;;;3.10;2.63;;;;;;;;;;5060265;28;20499;-75
2023/04/12 01:35:33;;;;;;;3.70;2.70;;;;;;;;;;5058703;28;20506;-76
2023/04/12 01:38:36;;;;;;;3.27;2.40;;;;;;;;;;5060298;28;20528;-75
2023/04/12 01:41:25;;;;;;;3.03;2.80;;;;;;;;;;5063784;28;20443;-76
2023/04/12 01:44:06;;;;;;;4.07;3.07;;;;;;;;;;5071793;28;20477;-77
2023/04/12 01:46:54;;;;;;;2.70;2.50;;;;;;;;;;5068789;28;20469;-76
2023/04/12 01:49:45;;;;;;;5.10;3.00;;;;;;;;;;5065870;28;20472;-76
2023/04/12 01:52:21;;;;;;;4.57;3.10;;;;;;;;;;5064680;28;20454;-76
2023/04/12 01:54:51;;;;;;;4.10;2.87;;;;;;;;;;5065108;28;20483;-76
2023/04/12 01:57:28;;;;;;;3.57;2.27;;;;;;;;;;5064626;28;20481;-76
2023/04/12 02:00:09;;;;;;;4.00;2.73;;;;;;;;;;5064349;28;20457;-77
2023/04/12 02:02:45;;;;;;;4.57;2.60;;;;;;;;;;5062950;28;20445;-77
2023/04/12 02:05:33;;;;;;;3.93;2.77;;;;;;;;;;5064244;28;20449;-76
2023/04/12 02:10:53;;;;;;;6.47;3.10;;;;;;;;;;5062080;28;20448;-75
2023/04/12 02:13:25;;;;;;;3.47;2.63;;;;;;;;;;5076297;28;21079;-76
2023/04/12 02:18:40;;;;;;;4.60;3.00;;;;;;;;;;5072493;28;20467;-77
2023/04/12 02:21:08;;;;;;;2.90;2.70;;;;;;;;;;5075674;28;20441;-77
2023/04/12 02:23:36;;;;;;;6.40;3.20;;;;;;;;;;5076351;28;20441;-76
2023/04/12 02:26:04;;;;;;;5.10;3.10;;;;;;;;;;5076549;28;20450;-76
2023/04/12 02:28:33;;;;;;;3.60;2.97;;;;;;;;;;5077463;28;20429;-77
2023/04/12 02:31:02;;;;;;;4.00;3.00;;;;;;;;;;5076840;28;20441;-76
2023/04/12 02:33:33;;;;;;;3.20;2.87;;;;;;;;;;5078361;28;20425;-75
2023/04/12 02:36:06;;;;;;;5.07;3.23;;;;;;;;;;5078298;28;20462;-77
2023/04/12 02:38:34;;;;;;;5.37;3.20;;;;;;;;;;5080395;28;20507;-76
2023/04/12 02:41:05;;;;;;;6.87;3.00;;;;;;;;;;5080369;28;20454;-76
2023/04/12 02:43:33;;;;;;;4.07;3.40;;;;;;;;;;5080071;28;20465;-75
2023/04/12 02:46:03;;;;;;;4.80;2.77;;;;;;;;;;5080211;28;20457;-76
2023/04/12 02:48:32;;;;;;;6.70;2.97;;;;;;;;;;5075949;28;20456;-76
2023/04/12 02:51:02;;;;;;;6.67;3.10;;;;;;;;;;5059317;28;20517;-76
2023/04/12 02:53:30;;;;;;;3.67;3.20;;;;;;;;;;5055815;28;20461;-76
2023/04/12 02:58:47;;;;;;;4.70;3.27;;;;;;;;;;5047178;28;20548;-77
2023/04/12 03:01:20;;;;;;;4.83;3.00;;;;;;;;;;5054466;28;20465;-76
2023/04/12 03:03:53;;;;;;;3.60;3.00;;;;;;;;;;5054186;28;20871;-76
2023/04/12 03:06:51;;;;;;;3.57;3.27;;;;;;;;;;5054437;28;20500;-76
2023/04/12 03:09:24;;;;;;;4.80;3.33;;;;;;;;;;5054335;28;20434;-76
2023/04/12 03:12:01;;;;;;;5.33;3.27;;;;;;;;;;5054124;28;20548;-78
2023/04/12 03:14:37;;;;;;;3.67;3.07;;;;;;;;;;5054553;28;20441;-77
2023/04/12 03:17:08;;;;;;;3.47;3.17;;;;;;;;;;5053476;28;20508;-78
2023/04/12 03:19:42;;;;;;;3.73;3.37;;;;;;;;;;5035832;28;20407;-77
2023/04/12 03:22:14;;;;;;;4.17;3.20;;;;;;;;;;5037934;28;20445;-76
2023/04/12 03:24:45;;;;;;;4.20;3.40;;;;;;;;;;5036726;28;20455;-76
2023/04/12 03:27:16;;;;;;;5.33;4.07;;;;;;;;;;5036778;28;20463;-77
2023/04/12 03:29:51;;;;;;;3.70;3.40;;;;;;;;;;5035179;28;20454;-77
2023/04/12 03:32:24;;;;;;;4.30;3.90;;;;;;;;;;5034545;28;20485;-77
2023/04/12 03:35:16;;;;;;;4.20;3.50;;;;;;;;;;5034907;28;20533;-77
2023/04/12 03:37:50;;;;;;;4.07;3.70;;;;;;;;;;5030697;28;20470;-77
2023/04/12 03:40:19;;;;;;;4.83;4.23;;;;;;;;;;5035748;28;20446;-76
2023/04/12 03:42:59;;;;;;;6.67;3.93;;;;;;;;;;5046869;28;20534;-76
2023/04/12 03:45:30;;;;;;;4.90;4.27;;;;;;;;;;5033815;28;20844;-76
2023/04/12 03:48:07;;;;;;;4.47;3.67;;;;;;;;;;5033895;28;20459;-77
2023/04/12 03:50:43;;;;;;;6.00;4.80;;;;;;;;;;5033721;28;20478;-77
2023/04/12 03:53:17;;;;;;;4.80;4.27;;;;;;;;;;5033463;28;20457;-76
2023/04/12 03:55:48;;;;;;;5.70;3.90;;;;;;;;;;5034403;28;20529;-76
2023/04/12 04:01:06;;;;;;;6.07;5.13;;;;;;;;;;5020750;28;20473;-76
2023/04/12 04:03:41;;;;;;;6.03;4.80;;;;;;;;;;5033859;28;20454;-78
2023/04/12 04:06:13;;;;;;;5.97;5.37;;;;;;;;;;5035770;28;20497;-75
2023/04/12 04:08:49;;;;;;;7.57;5.50;;;;;;;;;;5034571;28;20872;-76
2023/04/12 04:11:17;;;;;;;6.60;5.83;;;;;;;;;;5033878;28;20500;-76
2023/04/12 04:13:50;;;;;;;6.13;5.47;;;;;;;;;;5038664;28;20440;-76
2023/04/12 04:19:44;;;;;;;;;;;;;;;;;;;;;
2023/04/12 04:22:16;;;;;;;9.67;5.90;;;;;;;;;;5035592;28;20439;-76
2023/04/12 04:24:49;;;;;;;5.13;4.60;;;;;;;;;;5035550;28;20447;-75
2023/04/12 04:27:16;;;;;;;6.23;4.60;;;;;;;;;;5037351;28;20474;-77
2023/04/12 04:29:49;;;;;;;5.80;4.40;;;;;;;;;;5039166;28;20454;-76
2023/04/12 04:32:20;;;;;;;5.23;4.73;;;;;;;;;;5040870;28;20451;-76
2023/04/12 04:34:58;;;;;;;7.83;4.90;;;;;;;;;;5037948;28;20462;-75
2023/04/12 04:37:26;;;;;;;5.20;4.70;;;;;;;;;;5036887;28;20514;-77
2023/04/12 04:39:56;;;;;;;6.10;5.50;;;;;;;;;;5035950;28;20556;-76
2023/04/12 04:42:24;;;;;;;6.30;4.50;;;;;;;;;;5034986;28;20461;-76
2023/04/12 04:44:59;;;;;;;7.40;4.80;;;;;;;;;;5033903;28;20518;-76
2023/04/12 04:47:39;;;;;;;4.10;3.73;;;;;;;;;;5033610;28;20469;-75
2023/04/12 04:50:12;;;;;;;4.83;3.83;;;;;;;;;;5036673;28;20450;-76
2023/04/12 04:52:47;;;;;;;3.60;3.30;;;;;;;;;;5044372;28;20536;-76
2023/04/12 04:55:18;;;;;;;4.30;3.90;;;;;;;;;;5043994;28;20533;-76
2023/04/12 04:57:51;;;;;;;4.90;3.70;;;;;;;;;;5040244;28;20502;-75
2023/04/12 05:00:20;;;;;;;4.23;3.47;;;;;;;;;;5041997;28;20454;-78
2023/04/12 05:02:47;;;;;;;4.10;3.80;;;;;;;;;;5041138;28;20454;-77
2023/04/12 05:05:16;;;;;;;3.73;3.40;;;;;;;;;;5039286;28;20451;-78
2023/04/12 05:07:44;;;;;;;4.50;4.10;;;;;;;;;;5034733;28;20554;-76
2023/04/12 05:10:11;;;;;;;4.90;3.57;;;;;;;;;;5036032;28;20450;-75
2023/04/12 05:12:39;;;;;;;4.50;3.70;;;;;;;;;;5035576;28;20522;-76
2023/04/12 05:15:08;;;;;;;5.63;4.03;;;;;;;;;;5037026;28;21021;-76
2023/04/12 05:17:35;;;;;;;6.13;4.57;;;;;;;;;;5045701;28;20476;-76
2023/04/12 05:20:05;;;;;;;5.67;4.10;;;;;;;;;;5064557;28;20510;-77
2023/04/12 05:22:34;;;;;;;5.60;4.67;;;;;;;;;;5070584;28;20461;-75
2023/04/12 05:25:04;;;;;;;4.63;4.23;;;;;;;;;;5074024;28;20458;-76
2023/04/12 05:27:32;;;;;;;5.43;5.03;;;;;;;;;;5071595;28;20533;-76
2023/04/12 05:30:03;;;;;;;7.40;6.70;;;;;;;;;;5070449;28;20445;-75
2023/04/12 05:32:31;;;;;;;10.63;8.47;;;;;;;;;;5069752;28;20636;-76
2023/04/12 05:35:02;;;;;;;10.30;8.93;;;;;;;;;;5068456;28;20472;-76
2023/04/12 05:37:30;;;;;;;7.07;6.30;;;;;;;;;;5067255;28;20500;-76
2023/04/12 05:39:58;;;;;;;8.40;7.40;;;;;;;;;;5067428;28;20871;-75
2023/04/12 05:42:27;;;;;;;7.70;6.90;;;;;;;;;;5059345;28;20457;-77
2023/04/12 05:44:55;;;;;;;4.47;4.03;;;;;;;;;;5063043;28;20450;-76
2023/04/12 05:47:22;;;;;;;7.77;6.50;;;;;;;;;;5062183;28;20557;-76
2023/04/12 05:49:50;;;;;;;9.23;5.30;;;;;;;;;;5070869;28;20445;-76
2023/04/12 05:52:26;;;;;;;5.50;5.10;;;;;;;;;;5069420;28;20422;-76
2023/04/12 05:54:55;;;;;;;6.93;5.07;;;;;;;;;;5067681;28;20421;-76
2023/04/12 05:57:26;;;;;;;6.57;4.87;;;;;;;;;;5064586;28;20466;-76
2023/04/12 05:59:57;;;;;;;5.73;4.77;;;;;;;;;;5062808;28;20674;-76
2023/04/12 06:02:26;;;;;;;6.37;4.40;;;;;;;;;;5063461;28;20413;-75
2023/04/12 06:04:54;;;;;;;5.90;5.40;;;;;;;;;;5061625;28;20438;-75
2023/04/12 06:07:24;;;;;;;4.87;4.47;;;;;;;;;;5073064;28;20453;-76
2023/04/12 06:09:52;;;;;;;5.13;4.63;;;;;;;;;;5075046;28;20422;-77
2023/04/12 06:12:21;;;;;;;5.23;4.80;;;;;;;;;;5076685;28;20506;-76
2023/04/12 06:14:53;;;;;;;5.47;4.97;;;;;;;;;;5076225;28;20441;-73
2023/04/12 06:17:25;;;;;;;7.10;4.80;;;;;;;;;;5076059;28;20480;-75
2023/04/12 06:19:54;;;;;;;5.77;5.00;;;;;;;;;;5062968;28;20446;-77
2023/04/12 06:22:27;;;;;;;7.30;4.53;;;;;;;;;;5053995;28;20517;-76
2023/04/12 06:24:58;;;;;;;5.30;4.80;;;;;;;;;;5057052;28;20457;-76
2023/04/12 06:27:28;;;;;;;5.27;4.77;;;;;;;;;;5060677;28;20473;-76
2023/04/12 06:29:59;;;;;;;7.50;4.67;;;;;;;;;;5058922;28;20454;-77
2023/04/12 06:32:27;;;;;;;4.90;4.07;;;;;;;;;;5057025;28;20425;-78
2023/04/12 06:35:00;;;;;;;6.53;4.47;;;;;;;;;;5056357;28;20446;-76
2023/04/12 06:37:29;;;;;;;4.70;4.40;;;;;;;;;;5057064;28;20516;-77
2023/04/12 06:39:57;;;;;;;4.50;4.10;;;;;;;;;;5057093;28;20501;-79
2023/04/12 06:42:25;;;;;;;4.17;3.77;;;;;;;;;;5057205;28;20434;-77
2023/04/12 06:44:52;;;;;;;4.03;3.40;;;;;;;;;;5057230;28;20461;-76
2023/04/12 06:47:22;;;;;;;4.87;4.47;;;;;;;;;;5059438;28;20465;-77
2023/04/12 06:49:56;;;;;;;4.80;4.30;;;;;;;;;;5058841;28;20430;-77
2023/04/12 06:52:25;;;;;;;5.17;4.13;;;;;;;;;;5056962;28;20457;-76
2023/04/12 06:54:54;;;;;;;5.13;4.27;;;;;;;;;;5056436;28;20426;-76
2023/04/12 06:57:22;;;;;;;4.20;3.77;;;;;;;;;;5059205;28;20500;-77
2023/04/12 06:59:51;;;;;;;4.50;4.10;;;;;;;;;;5055875;28;20473;-77
2023/04/12 07:02:19;;;;;;;4.80;4.37;;;;;;;;;;5055912;28;20503;-77
2023/04/12 07:04:53;;;;;;;4.63;4.07;;;;;;;;;;5056082;28;20524;-77
2023/04/12 07:07:22;;;;;;;3.93;3.63;;;;;;;;;;5055853;28;20446;-78
2023/04/12 07:09:52;;;;;;;8.83;7.97;;;;;;;;;;5056039;28;20449;-78
2023/04/12 07:12:28;;;;;;;3.90;3.43;;;;;;;;;;5054601;28;20457;-77
2023/04/12 07:15:02;;;;;;;4.30;3.90;;;;;;;;;;5057495;28;20449;-76
2023/04/12 07:17:29;;;;;;;3.87;3.57;;;;;;;;;;5055744;28;20481;-76
2023/04/12 07:20:02;;;;;;;5.23;3.60;;;;;;;;;;5036507;28;20481;-77
2023/04/12 07:22:30;;;;;;;4.00;3.37;;;;;;;;;;5034051;28;20461;-76
2023/04/12 07:25:00;;;;;;;4.10;3.80;;;;;;;;;;5034624;28;20453;-77
2023/04/12 07:27:28;;;;;;;25.70;22.80;;;;;;;;;;5035223;28;20463;-76
2023/04/12 07:29:57;;;;;;;4.20;3.90;;;;;;;;;;5033441;28;20455;-77
2023/04/12 07:32:27;;;;;;;3.70;3.50;;;;;;;;;;5033315;28;20454;-76
2023/04/12 07:34:55;;;;;;;6.30;3.97;;;;;;;;;;5032822;28;20462;-79
2023/04/12 07:37:28;;;;;;;7.70;6.87;;;;;;;;;;5032060;28;21009;-76
2023/04/12 07:39:59;;;;;;;6.43;3.63;;;;;;;;;;5033205;28;20481;-75
2023/04/12 07:42:27;;;;;;;3.10;2.90;;;;;;;;;;5033134;28;20454;-76
2023/04/12 07:44:54;;;;;;;3.23;2.93;;;;;;;;;;5032800;28;20533;-76
2023/04/12 07:47:22;;;;;;;4.53;3.17;;;;;;;;;;5032997;28;20493;-77
2023/04/12 07:49:50;;;;;;;3.00;2.70;;;;;;;;;;5033583;28;20450;-76
2023/04/12 07:52:17;;;;;;;2.90;2.67;;;;;;;;;;5033797;28;20988;-77
2023/04/12 07:54:50;;;;;;;3.30;3.00;;;;;;;;;;5036006;28;20490;-78
2023/04/12 07:57:18;;;;;;;4.90;2.90;;;;;;;;;;5040560;28;20478;-76
2023/04/12 07:59:45;;;;;;;6.80;3.00;;;;;;;;;;5042895;28;20788;-76
2023/04/12 08:02:23;;;;;;;4.50;2.83;;;;;;;;;;5041918;28;20442;-77
2023/04/12 08:04:54;;;;;;;5.50;2.40;;;;;;;;;;5042486;28;20934;-75
2023/04/12 08:07:25;;;;;;;2.50;2.30;;;;;;;;;;5042977;28;20482;-75
2023/04/12 08:09:55;;;;;;;4.47;2.20;;;;;;;;;;5045670;28;20446;-77
2023/04/12 08:12:22;;;;;;;2.70;2.47;;;;;;;;;;5044542;28;20495;-77
2023/04/12 08:14:51;;;;;;;2.97;2.30;;;;;;;;;;5040950;28;20461;-77
2023/04/12 08:17:20;;;;;;;2.23;2.07;;;;;;;;;;5041638;28;20462;-76
2023/04/12 08:19:48;;;;;;;2.60;2.43;;;;;;;;;;5041428;28;20567;-76
2023/04/12 08:22:16;;;;;;;2.20;2.10;;;;;;;;;;5039563;28;20488;-76
2023/04/12 08:24:43;;;;;;;2.90;2.70;;;;;;;;;;5041421;28;20464;-77
2023/04/12 08:27:16;;;;;;;3.17;2.47;;;;;;;;;;5048104;28;20481;-78
2023/04/12 08:29:46;;;;;;;3.03;2.73;;;;;;;;;;5050929;28;20443;-77
2023/04/12 08:32:14;;;;;;;2.80;2.60;;;;;;;;;;5049457;28;20454;-77
2023/04/12 08:34:42;;;;;;;2.87;2.67;;;;;;;;;;5050802;28;20446;-74
2023/04/12 08:37:10;;;;;;;4.70;2.87;;;;;;;;;;5050027;28;20554;-76
2023/04/12 08:39:38;;;;;;;2.50;2.40;;;;;;;;;;5048356;28;20478;-76
2023/04/12 08:42:09;;;;;;;2.23;1.80;;;;;;;;;;5040126;28;20541;-77
2023/04/12 08:44:39;;;;;;;2.30;2.10;;;;;;;;;;5041246;28;20468;-76
2023/04/12 08:47:07;;;;;;;2.20;2.07;;;;;;;;;;5041780;28;20562;-77
2023/04/12 08:49:35;;;;;;;2.47;2.30;;;;;;;;;;5039809;28;20473;-77
2023/04/12 08:52:05;;;;;;;3.13;2.27;;;;;;;;;;5037223;28;20481;-77
2023/04/12 08:54:33;;;;;;;2.60;2.50;;;;;;;;;;5036480;28;20427;-77
2023/04/12 08:57:02;;;;;;;2.80;2.60;;;;;;;;;;5038365;28;20496;-76
2023/04/12 09:02:55;;;;;;;;;;;;;;;;;;;;;
2023/04/12 09:05:39;;;;;;;3.03;2.57;;;;;;;;;;5013623;28;20439;-77
2023/04/12 09:08:42;;;;;;;3.20;2.90;;;;;;;;;;5049400;28;20435;-75
2023/04/12 09:11:36;;;;;;;4.13;2.27;;;;;;;;;;5056283;28;20449;-76
2023/04/12 09:14:21;;;;;;;4.87;2.90;;;;;;;;;;5053385;28;20461;-77
2023/04/12 09:16:53;;;;;;;2.63;2.43;;;;;;;;;;5052626;28;20495;-77
2023/04/12 09:19:38;;;;;;;2.47;2.37;;;;;;;;;;5053214;28;20470;-76
2023/04/12 09:22:08;;;;;;;3.53;2.63;;;;;;;;;;5035362;28;20458;-76
2023/04/12 09:24:48;;;;;;;6.53;3.00;;;;;;;;;;5046111;28;20457;-76
2023/04/12 09:27:37;;;;;;;2.70;2.50;;;;;;;;;;5040957;28;20538;-77
2023/04/12 09:30:15;;;;;;;3.10;2.90;;;;;;;;;;5044373;28;20435;-77
2023/04/12 09:32:55;;;;;;;3.33;3.13;;;;;;;;;;5046348;28;20475;-78
2023/04/12 09:35:38;;;;;;;3.20;3.00;;;;;;;;;;5033748;28;20545;-78
2023/04/12 09:38:38;;;;;;;;;;;;;;;;;;;;;
2023/04/12 09:41:30;;;;;;;3.97;2.40;;;;;;;;;;5041008;28;20434;-77
2023/04/12 09:43:59;;;;;;;3.20;2.80;;;;;;;;;;5044544;28;20447;-75
2023/04/12 09:46:27;;;;;;;7.80;3.07;;;;;;;;;;5055265;28;20464;-77
2023/04/12 09:48:57;;;;;;;3.23;2.50;;;;;;;;;;5040682;28;20442;-75
2023/04/12 09:51:28;;;;;;;4.97;3.00;;;;;;;;;;5049379;28;20494;-76
2023/04/12 09:53:59;;;;;;;2.70;2.50;;;;;;;;;;5048408;28;20520;-76
2023/04/12 09:56:31;;;;;;;3.90;3.50;;;;;;;;;;5033466;28;20479;-76
2023/04/12 09:59:05;;;;;;;5.13;3.10;;;;;;;;;;5034104;28;20548;-77
2023/04/12 10:01:42;;;;;;;4.37;2.60;;;;;;;;;;5047329;28;20537;-77
2023/04/12 10:04:11;;;;;;;4.10;3.00;;;;;;;;;;5047375;28;20523;-78
2023/04/12 10:06:48;;;;;;;3.07;2.17;;;;;;;;;;5059026;28;20997;-76
2023/04/12 10:09:30;;;;;;;3.47;2.73;;;;;;;;;;5026866;28;20449;-76
2023/04/12 10:12:00;;;;;;;2.97;2.60;;;;;;;;;;5056044;28;20471;-76
2023/04/12 10:14:29;;;;;;;3.20;2.90;;;;;;;;;;5040960;28;20500;-77
2023/04/12 10:16:57;;;;;;;3.00;2.30;;;;;;;;;;5037739;28;20489;-77
2023/04/12 10:19:26;;;;;;;2.73;2.53;;;;;;;;;;5038807;28;20470;-78
2023/04/12 10:21:54;;;;;;;5.83;2.70;;;;;;;;;;5043199;28;20446;-76
2023/04/12 10:24:23;;;;;;;2.90;2.60;;;;;;;;;;5047221;28;20888;-77
2023/04/12 10:26:54;;;;;;;6.00;2.80;;;;;;;;;;5043525;28;20474;-77
2023/04/12 10:29:32;;;;;;;2.77;2.50;;;;;;;;;;5035029;28;20450;-78
2023/04/12 10:32:20;;;;;;;3.33;2.87;;;;;;;;;;5024336;28;20479;-77
2023/04/12 10:34:52;;;;;;;2.90;2.63;;;;;;;;;;5049757;28;20457;-78
2023/04/12 10:37:21;;;;;;;4.00;2.20;;;;;;;;;;5054612;28;20469;-76
2023/04/12 10:39:53;;;;;;;2.47;2.37;;;;;;;;;;5054689;28;20473;-77
2023/04/12 10:42:25;;;;;;;3.53;2.30;;;;;;;;;;5055587;28;20458;-77
2023/04/12 10:44:56;;;;;;;2.80;2.23;;;;;;;;;;5055647;28;20492;-77
2023/04/12 10:47:42;;;;;;;2.50;2.30;;;;;;;;;;5054952;28;20456;-77
2023/04/12 10:50:23;;;;;;;2.60;2.10;;;;;;;;;;5053788;28;20441;-77
2023/04/12 10:53:11;;;;;;;3.53;2.23;;;;;;;;;;5054210;28;20476;-76
2023/04/12 10:55:40;;;;;;;4.30;2.70;;;;;;;;;;5056331;28;20820;-77
2023/04/12 10:58:07;;;;;;;4.20;2.03;;;;;;;;;;5058283;28;20454;-76
2023/04/12 11:00:54;;;;;;;2.77;2.13;;;;;;;;;;5058223;28;20470;-79
2023/04/12 11:03:24;;;;;;;2.43;2.23;;;;;;;;;;5057465;28;20453;-77
2023/04/12 11:06:05;;;;;;;2.40;2.07;;;;;;;;;;5057308;28;20477;-76
2023/04/12 11:08:40;;;;;;;4.17;2.67;;;;;;;;;;5057843;28;20445;-76
2023/04/12 11:11:19;;;;;;;2.00;1.90;;;;;;;;;;5055965;28;20842;-76
2023/04/12 11:13:48;;;;;;;2.97;2.10;;;;;;;;;;5055773;28;20449;-77
2023/04/12 11:16:20;;;;;;;1.67;1.57;;;;;;;;;;5037768;28;20482;-76
2023/04/12 11:19:00;;;;;;;1.73;1.60;;;;;;;;;;5035014;28;20447;-77
2023/04/12 11:21:28;;;;;;;1.73;1.63;;;;;;;;;;5035472;28;20464;-77
2023/04/12 11:23:57;;;;;;;3.47;2.00;;;;;;;;;;5037763;28;20477;-77
2023/04/12 11:26:26;;;;;;;2.50;2.03;;;;;;;;;;5041586;28;20494;-77
2023/04/12 11:28:54;;;;;;;1.67;1.60;;;;;;;;;;5043216;28;20472;-77
2023/04/12 11:31:22;;;;;;;1.60;1.50;;;;;;;;;;5041799;28;20443;-77
2023/04/12 11:33:50;;;;;;;1.40;1.30;;;;;;;;;;5041136;28;20538;-76
2023/04/12 11:36:21;;;;;;;1.70;1.50;;;;;;;;;;5039574;28;20466;-77
2023/04/12 11:38:53;;;;;;;3.17;1.50;;;;;;;;;;5041996;28;20472;-77
2023/04/12 11:41:21;;;;;;;1.40;1.37;;;;;;;;;;5042371;28;20482;-78
2023/04/12 11:43:49;;;;;;;1.40;1.30;;;;;;;;;;5041995;28;20470;-76
2023/04/12 11:46:26;;;;;;;1.77;1.20;;;;;;;;;;5040747;28;20494;-77
2023/04/12 11:48:56;;;;;;;1.70;1.47;;;;;;;;;;5043417;28;20469;-76
2023/04/12 11:51:29;;;;;;;1.70;1.60;;;;;;;;;;5042206;28;20474;-77
2023/04/12 11:53:58;;;;;;;1.73;1.30;;;;;;;;;;5043017;28;20458;-77
2023/04/12 11:56:26;;;;;;;2.37;1.90;;;;;;;;;;5042283;28;20498;-77
2023/04/12 11:58:54;;;;;;;1.60;1.50;;;;;;;;;;5040452;28;20538;-76
2023/04/12 12:01:36;;;;;;;1.50;1.50;;;;;;;;;;5040088;28;20501;-78
2023/04/12 12:04:07;;;;;;;2.80;1.57;;;;;;;;;;5042393;28;20526;-76
2023/04/12 12:06:36;;;;;;;2.03;1.73;;;;;;;;;;5041315;28;20489;-78
2023/04/12 12:09:08;;;;;;;1.27;1.27;;;;;;;;;;5042574;28;20477;-76
2023/04/12 12:11:36;;;;;;;2.30;1.60;;;;;;;;;;5041790;28;20481;-77
2023/04/12 12:14:06;;;;;;;3.93;1.50;;;;;;;;;;5040340;28;20694;-76
2023/04/12 12:16:40;;;;;;;1.37;1.30;;;;;;;;;;5041329;28;20490;-76
2023/04/12 12:19:09;;;;;;;1.80;1.70;;;;;;;;;;5041194;28;20438;-77
2023/04/12 12:21:38;;;;;;;4.83;2.53;;;;;;;;;;5037811;28;20486;-78
2023/04/12 12:24:15;;;;;;;1.70;1.10;;;;;;;;;;5037133;28;20438;-77
2023/04/12 12:26:43;;;;;;;1.60;1.30;;;;;;;;;;5037897;28;20497;-76
2023/04/12 12:29:17;;;;;;;1.17;1.17;;;;;;;;;;5036742;28;20516;-77
2023/04/12 12:31:47;;;;;;;1.40;1.30;;;;;;;;;;5035357;28;20450;-77
2023/04/12 12:34:18;;;;;;;1.70;1.17;;;;;;;;;;5034188;28;20454;-77
2023/04/12 12:36:57;;;;;;;1.50;1.40;;;;;;;;;;5032647;28;20498;-77
2023/04/12 12:39:25;;;;;;;1.93;1.30;;;;;;;;;;5032981;28;20486;-77
2023/04/12 12:41:56;;;;;;;1.10;1.10;;;;;;;;;;5032474;28;20470;-76
2023/04/12 12:44:26;;;;;;;1.40;1.30;;;;;;;;;;5031973;28;20513;-77
2023/04/12 12:46:54;;;;;;;1.40;1.40;;;;;;;;;;5032485;28;20836;-77
2023/04/12 12:49:22;;;;;;;1.20;1.10;;;;;;;;;;5034543;28;20489;-77
2023/04/12 12:51:52;;;;;;;2.47;1.30;;;;;;;;;;5037287;28;20504;-76
2023/04/12 12:54:19;;;;;;;1.23;1.23;;;;;;;;;;5036398;28;20451;-76
2023/04/12 12:56:47;;;;;;;1.30;1.20;;;;;;;;;;5037154;28;20466;-76
2023/04/12 12:59:15;;;;;;;0.97;0.97;;;;;;;;;;5034054;28;20443;-77
2023/04/12 13:01:45;;;;;;;1.10;1.10;;;;;;;;;;5033333;28;20500;-77
2023/04/12 13:04:13;;;;;;;1.13;1.13;;;;;;;;;;5033949;28;20873;-77
2023/04/12 13:06:42;;;;;;;1.90;1.47;;;;;;;;;;5034684;28;20544;-75
2023/04/12 13:09:16;;;;;;;1.23;1.20;;;;;;;;;;5034700;28;20651;-77
2023/04/12 13:11:45;;;;;;;1.33;1.27;;;;;;;;;;5034692;28;20441;-76
2023/04/12 13:14:13;;;;;;;1.17;1.17;;;;;;;;;;5033643;28;20455;-76
2023/04/12 13:16:44;;;;;;;1.80;1.20;;;;;;;;;;5033612;28;20470;-77
2023/04/12 13:19:22;;;;;;;1.40;1.30;;;;;;;;;;5034588;28;20443;-75
2023/04/12 13:21:58;;;;;;;1.30;1.20;;;;;;;;;;5034317;28;20478;-76
2023/04/12 13:24:38;;;;;;;1.57;1.43;;;;;;;;;;5034403;28;20831;-75
2023/04/12 13:27:12;;;;;;;1.43;1.33;;;;;;;;;;5035389;28;20475;-76
2023/04/12 13:29:40;;;;;;;1.20;1.20;;;;;;;;;;5035367;28;20549;-76
2023/04/12 13:32:12;;;;;;;2.40;0.90;;;;;;;;;;5035649;28;20478;-76
2023/04/12 13:34:43;;;;;;;1.60;1.10;;;;;;;;;;5035604;28;20482;-76
2023/04/12 13:37:13;;;;;;;2.00;1.40;;;;;;;;;;5036667;28;20470;-78
2023/04/12 13:39:43;;;;;;;1.10;1.10;;;;;;;;;;5036812;28;20461;-78
2023/04/12 13:42:11;;;;;;;1.10;1.00;;;;;;;;;;5037018;28;20441;-76
2023/04/12 13:44:44;;;;;;;3.03;1.03;;;;;;;;;;5037024;28;20457;-77
2023/04/12 13:47:16;;;;;;;1.33;1.20;;;;;;;;;;5037324;28;20473;-77
2023/04/12 13:49:50;;;;;;;1.13;1.00;;;;;;;;;;5036830;28;20458;-76
2023/04/12 13:52:25;;;;;;;1.17;1.07;;;;;;;;;;5037431;28;20450;-77
2023/04/12 13:54:56;;;;;;;1.33;1.23;;;;;;;;;;5036828;28;20945;-76
2023/04/12 13:57:34;;;;;;;1.80;1.47;;;;;;;;;;5037315;28;20474;-75
2023/04/12 14:00:03;;;;;;;1.23;1.10;;;;;;;;;;5036882;28;20469;-76
2023/04/12 14:02:31;;;;;;;1.60;1.20;;;;;;;;;;5037215;28;20454;-75
2023/04/12 14:05:00;;;;;;;2.30;1.30;;;;;;;;;;5036538;28;20474;-76
2023/04/12 14:07:30;;;;;;;2.17;1.37;;;;;;;;;;5036648;28;20474;-77
2023/04/12 14:09:59;;;;;;;2.20;0.90;;;;;;;;;;5035408;28;20496;-76
2023/04/12 14:12:28;;;;;;;2.97;1.80;;;;;;;;;;5036751;28;20431;-77
2023/04/12 14:14:56;;;;;;;1.67;1.57;;;;;;;;;;5035877;28;20465;-76
2023/04/12 14:17:24;;;;;;;1.47;1.37;;;;;;;;;;5038964;28;20500;-77
2023/04/12 14:19:52;;;;;;;1.00;1.00;;;;;;;;;;5055507;28;20454;-76
2023/04/12 14:22:21;;;;;;;0.90;0.90;;;;;;;;;;5055465;28;20477;-76
2023/04/12 14:24:49;;;;;;;1.93;1.00;;;;;;;;;;5056305;28;20544;-76
2023/04/12 14:27:21;;;;;;;1.50;1.40;;;;;;;;;;5056772;28;20481;-75
2023/04/12 14:29:49;;;;;;;1.20;1.10;;;;;;;;;;5057194;28;20446;-77
2023/04/12 14:32:18;;;;;;;1.20;1.10;;;;;;;;;;5056741;28;20449;-76
2023/04/12 14:34:47;;;;;;;2.43;1.40;;;;;;;;;;5057164;28;20540;-77
2023/04/12 14:37:18;;;;;;;1.30;0.87;;;;;;;;;;5057974;28;20484;-76
2023/04/12 14:39:47;;;;;;;1.10;1.00;;;;;;;;;;5057316;28;20465;-77
2023/04/12 14:42:15;;;;;;;1.60;1.23;;;;;;;;;;5057931;28;20542;-77
2023/04/12 14:44:45;;;;;;;1.20;1.10;;;;;;;;;;5056223;28;20458;-77
2023/04/12 14:47:16;;;;;;;1.10;1.10;;;;;;;;;;5054858;28;20449;-76
2023/04/12 14:49:47;;;;;;;3.53;1.20;;;;;;;;;;5054822;28;20458;-75
2023/04/12 14:52:17;;;;;;;1.60;1.03;;;;;;;;;;5054731;28;20804;-77
2023/04/12 14:54:50;;;;;;;1.37;1.07;;;;;;;;;;5054013;28;20485;-78
2023/04/12 14:57:26;;;;;;;1.13;1.03;;;;;;;;;;5055419;28;20547;-77
2023/04/12 14:59:57;;;;;;;0.93;0.93;;;;;;;;;;5054745;28;20491;-76
2023/04/12 15:02:28;;;;;;;1.53;0.93;;;;;;;;;;5055819;28;20508;-76
2023/04/12 15:04:57;;;;;;;1.53;1.07;;;;;;;;;;5057814;28;20473;-77
2023/04/12 15:07:30;;;;;;;1.20;1.00;;;;;;;;;;5057883;28;20849;-76
2023/04/12 15:10:12;;;;;;;3.50;1.00;;;;;;;;;;5055650;28;20464;-76
2023/04/12 15:12:44;;;;;;;1.37;0.70;;;;;;;;;;5057997;28;20477;-76
2023/04/12 15:15:14;;;;;;;0.80;0.80;;;;;;;;;;5058290;28;20474;-77
2023/04/12 15:17:43;;;;;;;1.27;1.17;;;;;;;;;;5051355;28;20463;-75
2023/04/12 15:20:15;;;;;;;1.50;0.70;;;;;;;;;;5035110;28;20534;-75
2023/04/12 15:22:44;;;;;;;1.53;0.90;;;;;;;;;;5038833;28;20538;-74
2023/04/12 15:25:12;;;;;;;1.43;0.80;;;;;;;;;;5042830;28;20442;-73
2023/04/12 15:27:51;;;;;;;0.70;0.70;;;;;;;;;;5039722;28;20497;-73
2023/04/12 15:30:21;;;;;;;1.00;0.67;;;;;;;;;;5039328;28;20443;-73
2023/04/12 15:32:52;;;;;;;1.13;0.80;;;;;;;;;;5036268;28;20541;-74
2023/04/12 15:35:27;;;;;;;0.90;0.90;;;;;;;;;;5034710;28;20462;-75
2023/04/12 15:38:00;;;;;;;0.87;0.80;;;;;;;;;;5038810;28;20426;-74
2023/04/12 15:40:32;;;;;;;0.53;0.53;;;;;;;;;;5037070;28;20450;-74